sensor_id;sensor_type;location;lat;lon;timestamp;pressure;altitude;pressure_sealevel;temperature;humidity
11415;BME280;5763;42.714;23.244;2022-12-16T00:02:26;94408.56;;;6.65;90.12
11415;BME280;5763;42.714;23.244;2022-12-16T00:04:53;94428.69;;;6.68;89.47
11415;BME280;5763;42.714;23.244;2022-12-16T00:07:21;94418.97;;;6.54;90.85
11415;BME280;5763;42.714;23.244;2022-12-16T00:09:49;94403.75;;;6.57;90.59
11415;BME280;5763;42.714;23.244;2022-12-16T00:12:17;94398.91;;;6.64;89.97
11415;BME280;5763;42.714;23.244;2022-12-16T00:14:44;94407.25;;;6.70;89.85
11415;BME280;5763;42.714;23.244;2022-12-16T00:17:11;94411.59;;;6.67;89.75
11415;BME280;5763;42.714;23.244;2022-12-16T00:19:37;94393.66;;;6.70;89.74
11415;BME280;5763;42.714;23.244;2022-12-16T00:22:04;94395.56;;;6.85;88.77
11415;BME280;5763;42.714;23.244;2022-12-16T00:24:31;94398.72;;;6.84;88.14
11415;BME280;5763;42.714;23.244;2022-12-16T00:26:58;94410.38;;;6.84;87.89
11415;BME280;5763;42.714;23.244;2022-12-16T00:29:26;94403.84;;;6.82;88.05
11415;BME280;5763;42.714;23.244;2022-12-16T00:31:52;94407.81;;;6.77;88.64
11415;BME280;5763;42.714;23.244;2022-12-16T00:34:19;94414.25;;;6.71;88.13
11415;BME280;5763;42.714;23.244;2022-12-16T00:36:46;94396.38;;;6.70;88.41
11415;BME280;5763;42.714;23.244;2022-12-16T00:39:12;94404.19;;;6.55;88.75
11415;BME280;5763;42.714;23.244;2022-12-16T00:41:39;94400.63;;;6.58;89.94
11415;BME280;5763;42.714;23.244;2022-12-16T00:44:06;94402.47;;;6.61;89.95
11415;BME280;5763;42.714;23.244;2022-12-16T00:46:34;94415.41;;;6.70;88.88
11415;BME280;5763;42.714;23.244;2022-12-16T00:49:00;94393.66;;;6.70;88.73
11415;BME280;5763;42.714;23.244;2022-12-16T00:51:27;94394.97;;;6.65;89.75
11415;BME280;5763;42.714;23.244;2022-12-16T00:53:54;94401.78;;;6.57;90.19
11415;BME280;5763;42.714;23.244;2022-12-16T00:56:20;94403.09;;;6.53;90.67
11415;BME280;5763;42.714;23.244;2022-12-16T00:58:47;94398.84;;;6.52;91.62
11415;BME280;5763;42.714;23.244;2022-12-16T01:01:14;94404.41;;;6.48;91.71
11415;BME280;5763;42.714;23.244;2022-12-16T01:03:42;94396.91;;;6.65;91.14
11415;BME280;5763;42.714;23.244;2022-12-16T01:06:10;94395.66;;;6.69;90.51
11415;BME280;5763;42.714;23.244;2022-12-16T01:08:38;94359.75;;;6.62;90.45
11415;BME280;5763;42.714;23.244;2022-12-16T01:14:51;94410.44;;;6.68;89.64
11415;BME280;5763;42.714;23.244;2022-12-16T01:17:18;94400.31;;;6.69;89.10
11415;BME280;5763;42.714;23.244;2022-12-16T01:26:30;94393.56;;;6.61;88.68
11415;BME280;5763;42.714;23.244;2022-12-16T01:28:57;94384.38;;;6.55;89.21
11415;BME280;5763;42.714;23.244;2022-12-16T01:31:24;94396.25;;;6.48;89.31
11415;BME280;5763;42.714;23.244;2022-12-16T01:33:51;94391.34;;;6.43;89.68
11415;BME280;5763;42.714;23.244;2022-12-16T01:36:17;94392.44;;;6.46;89.81
11415;BME280;5763;42.714;23.244;2022-12-16T01:38:45;94380.63;;;6.36;90.33
11415;BME280;5763;42.714;23.244;2022-12-16T01:41:14;94388.78;;;6.36;91.63
11415;BME280;5763;42.714;23.244;2022-12-16T01:43:44;94381.91;;;6.19;92.22
11415;BME280;5763;42.714;23.244;2022-12-16T01:46:16;94373.53;;;6.26;91.92
11415;BME280;5763;42.714;23.244;2022-12-16T01:48:47;94364.66;;;6.26;92.06
11415;BME280;5763;42.714;23.244;2022-12-16T01:51:20;94378.97;;;6.26;92.14
11415;BME280;5763;42.714;23.244;2022-12-16T01:53:51;94387.38;;;6.32;91.26
11415;BME280;5763;42.714;23.244;2022-12-16T01:56:21;94371.91;;;6.29;91.15
11415;BME280;5763;42.714;23.244;2022-12-16T01:58:51;94370.09;;;6.26;91.60
11415;BME280;5763;42.714;23.244;2022-12-16T02:01:18;94395.09;;;6.33;91.59
11415;BME280;5763;42.714;23.244;2022-12-16T02:03:46;94369.44;;;6.34;90.76
11415;BME280;5763;42.714;23.244;2022-12-16T02:06:13;94367.50;;;6.35;90.26
11415;BME280;5763;42.714;23.244;2022-12-16T02:08:40;94343.81;;;6.35;89.83
11415;BME280;5763;42.714;23.244;2022-12-16T02:11:27;94338.03;;;6.33;89.92
11415;BME280;5763;42.714;23.244;2022-12-16T02:14:27;94355.66;;;6.41;89.37
11415;BME280;5763;42.714;23.244;2022-12-16T02:16:59;94331.63;;;6.27;89.51
11415;BME280;5763;42.714;23.244;2022-12-16T02:20:00;94344.84;;;6.25;91.12
11415;BME280;5763;42.714;23.244;2022-12-16T02:22:44;94341.28;;;6.28;90.00
11415;BME280;5763;42.714;23.244;2022-12-16T02:25:36;94349.44;;;6.28;90.03
11415;BME280;5763;42.714;23.244;2022-12-16T02:28:08;94358.06;;;6.39;89.07
11415;BME280;5763;42.714;23.244;2022-12-16T02:30:46;94333.06;;;6.44;88.79
11415;BME280;5763;42.714;23.244;2022-12-16T02:33:29;94347.53;;;6.54;88.08
11415;BME280;5763;42.714;23.244;2022-12-16T02:36:05;94341.34;;;6.53;88.31
11415;BME280;5763;42.714;23.244;2022-12-16T02:38:39;94356.56;;;6.51;87.91
11415;BME280;5763;42.714;23.244;2022-12-16T02:41:12;94363.31;;;6.59;88.09
11415;BME280;5763;42.714;23.244;2022-12-16T02:43:49;94366.13;;;6.55;87.84
11415;BME280;5763;42.714;23.244;2022-12-16T02:46:21;94346.22;;;6.46;87.69
11415;BME280;5763;42.714;23.244;2022-12-16T02:48:48;94356.97;;;6.37;87.64
11415;BME280;5763;42.714;23.244;2022-12-16T02:51:15;94367.94;;;6.33;88.04
11415;BME280;5763;42.714;23.244;2022-12-16T02:53:45;94388.84;;;6.20;87.87
11415;BME280;5763;42.714;23.244;2022-12-16T02:56:21;94392.28;;;6.08;87.87
11415;BME280;5763;42.714;23.244;2022-12-16T02:58:53;94402.09;;;5.90;88.64
11415;BME280;5763;42.714;23.244;2022-12-16T03:01:30;94388.41;;;5.93;88.39
11415;BME280;5763;42.714;23.244;2022-12-16T03:04:02;94388.59;;;5.86;88.11
11415;BME280;5763;42.714;23.244;2022-12-16T03:06:31;94374.94;;;5.74;89.54
11415;BME280;5763;42.714;23.244;2022-12-16T03:09:01;94350.81;;;5.92;88.48
11415;BME280;5763;42.714;23.244;2022-12-16T03:11:31;94348.34;;;5.97;88.05
11415;BME280;5763;42.714;23.244;2022-12-16T03:13:59;94360.84;;;5.95;88.06
11415;BME280;5763;42.714;23.244;2022-12-16T03:16:30;94341.56;;;5.89;88.59
11415;BME280;5763;42.714;23.244;2022-12-16T03:19:00;94340.84;;;6.01;87.59
11415;BME280;5763;42.714;23.244;2022-12-16T03:21:33;94344.13;;;5.96;87.75
11415;BME280;5763;42.714;23.244;2022-12-16T03:24:04;94342.31;;;6.06;87.76
11415;BME280;5763;42.714;23.244;2022-12-16T03:26:34;94343.03;;;6.06;87.76
11415;BME280;5763;42.714;23.244;2022-12-16T03:29:07;94333.25;;;5.96;87.65
11415;BME280;5763;42.714;23.244;2022-12-16T03:31:41;94342.06;;;6.00;87.44
11415;BME280;5763;42.714;23.244;2022-12-16T03:34:14;94351.88;;;6.10;86.75
11415;BME280;5763;42.714;23.244;2022-12-16T03:36:47;94385.19;;;5.98;87.93
11415;BME280;5763;42.714;23.244;2022-12-16T03:39:17;94380.75;;;6.04;87.32
11415;BME280;5763;42.714;23.244;2022-12-16T03:41:46;94378.13;;;6.01;87.17
11415;BME280;5763;42.714;23.244;2022-12-16T03:44:16;94363.78;;;6.00;87.19
11415;BME280;5763;42.714;23.244;2022-12-16T03:46:44;94365.97;;;6.05;86.89
11415;BME280;5763;42.714;23.244;2022-12-16T03:49:11;94368.47;;;6.00;87.26
11415;BME280;5763;42.714;23.244;2022-12-16T03:51:38;94364.34;;;6.08;86.56
11415;BME280;5763;42.714;23.244;2022-12-16T03:54:05;94378.88;;;6.01;86.82
11415;BME280;5763;42.714;23.244;2022-12-16T03:56:32;94388.13;;;6.04;87.07
11415;BME280;5763;42.714;23.244;2022-12-16T03:58:59;94384.03;;;6.12;86.32
11415;BME280;5763;42.714;23.244;2022-12-16T04:01:25;94379.19;;;6.19;85.72
11415;BME280;5763;42.714;23.244;2022-12-16T04:03:53;94380.53;;;6.11;85.54
11415;BME280;5763;42.714;23.244;2022-12-16T04:06:20;94366.13;;;6.14;85.49
11415;BME280;5763;42.714;23.244;2022-12-16T04:08:47;94378.94;;;6.14;86.34
11415;BME280;5763;42.714;23.244;2022-12-16T04:11:14;94359.78;;;6.05;86.04
11415;BME280;5763;42.714;23.244;2022-12-16T04:13:59;94387.03;;;6.01;86.75
11415;BME280;5763;42.714;23.244;2022-12-16T04:16:43;94389.72;;;6.01;87.08
11415;BME280;5763;42.714;23.244;2022-12-16T04:19:31;94381.53;;;6.05;86.79
11415;BME280;5763;42.714;23.244;2022-12-16T04:22:20;94377.31;;;6.16;86.78
11415;BME280;5763;42.714;23.244;2022-12-16T04:25:09;94361.22;;;6.09;86.49
11415;BME280;5763;42.714;23.244;2022-12-16T04:27:37;94374.16;;;6.18;85.94
11415;BME280;5763;42.714;23.244;2022-12-16T04:30:05;94370.34;;;6.15;86.65
11415;BME280;5763;42.714;23.244;2022-12-16T04:32:53;94373.75;;;6.19;87.07
11415;BME280;5763;42.714;23.244;2022-12-16T04:35:39;94368.97;;;6.23;88.29
11415;BME280;5763;42.714;23.244;2022-12-16T04:38:24;94364.94;;;6.15;89.15
11415;BME280;5763;42.714;23.244;2022-12-16T04:41:08;94361.69;;;6.20;89.48
11415;BME280;5763;42.714;23.244;2022-12-16T04:43:52;94345.94;;;6.28;89.77
11415;BME280;5763;42.714;23.244;2022-12-16T04:46:36;94351.81;;;6.26;90.17
11415;BME280;5763;42.714;23.244;2022-12-16T04:49:20;94351.75;;;6.30;91.98
11415;BME280;5763;42.714;23.244;2022-12-16T04:52:05;94359.78;;;6.33;91.37
11415;BME280;5763;42.714;23.244;2022-12-16T04:54:50;94359.88;;;6.30;90.59
11415;BME280;5763;42.714;23.244;2022-12-16T04:57:34;94357.16;;;6.30;89.79
11415;BME280;5763;42.714;23.244;2022-12-16T05:00:19;94346.63;;;6.32;90.96
11415;BME280;5763;42.714;23.244;2022-12-16T05:03:03;94363.03;;;6.28;89.26
11415;BME280;5763;42.714;23.244;2022-12-16T05:05:48;94372.28;;;6.31;91.11
11415;BME280;5763;42.714;23.244;2022-12-16T05:08:34;94355.44;;;6.36;92.09
11415;BME280;5763;42.714;23.244;2022-12-16T05:11:19;94350.44;;;6.34;91.94
11415;BME280;5763;42.714;23.244;2022-12-16T05:14:04;94379.13;;;6.35;91.58
11415;BME280;5763;42.714;23.244;2022-12-16T05:16:48;94349.81;;;6.14;92.09
11415;BME280;5763;42.714;23.244;2022-12-16T05:19:33;94368.00;;;6.17;93.21
11415;BME280;5763;42.714;23.244;2022-12-16T05:22:16;94370.75;;;6.30;92.77
11415;BME280;5763;42.714;23.244;2022-12-16T05:25:02;94389.19;;;6.22;92.06
11415;BME280;5763;42.714;23.244;2022-12-16T05:27:49;94385.22;;;6.11;94.01
11415;BME280;5763;42.714;23.244;2022-12-16T05:30:34;94385.91;;;6.15;94.86
11415;BME280;5763;42.714;23.244;2022-12-16T05:33:19;94380.38;;;6.18;95.99
11415;BME280;5763;42.714;23.244;2022-12-16T05:36:04;94380.78;;;6.17;96.63
11415;BME280;5763;42.714;23.244;2022-12-16T05:38:48;94403.03;;;6.12;96.63
11415;BME280;5763;42.714;23.244;2022-12-16T05:41:33;94437.06;;;6.16;95.83
11415;BME280;5763;42.714;23.244;2022-12-16T05:44:18;94410.53;;;6.08;96.41
11415;BME280;5763;42.714;23.244;2022-12-16T05:47:03;94373.41;;;6.17;96.07
11415;BME280;5763;42.714;23.244;2022-12-16T05:49:48;94414.06;;;6.21;95.90
11415;BME280;5763;42.714;23.244;2022-12-16T05:52:32;94396.00;;;6.14;96.09
11415;BME280;5763;42.714;23.244;2022-12-16T05:55:16;94415.53;;;6.09;97.46
11415;BME280;5763;42.714;23.244;2022-12-16T05:58:01;94432.31;;;6.20;97.41
11415;BME280;5763;42.714;23.244;2022-12-16T06:00:45;94423.47;;;6.32;96.45
11415;BME280;5763;42.714;23.244;2022-12-16T06:03:29;94455.00;;;6.42;96.78
11415;BME280;5763;42.714;23.244;2022-12-16T06:06:13;94459.78;;;6.38;95.07
11415;BME280;5763;42.714;23.244;2022-12-16T06:08:57;94440.34;;;6.40;94.97
11415;BME280;5763;42.714;23.244;2022-12-16T06:11:38;94430.03;;;6.47;94.80
11415;BME280;5763;42.714;23.244;2022-12-16T06:14:24;94441.78;;;6.44;95.32
11415;BME280;5763;42.714;23.244;2022-12-16T06:17:08;94440.91;;;6.47;95.03
11415;BME280;5763;42.714;23.244;2022-12-16T06:19:53;94458.91;;;6.41;95.83
11415;BME280;5763;42.714;23.244;2022-12-16T06:22:37;94454.69;;;6.40;95.64
11415;BME280;5763;42.714;23.244;2022-12-16T06:25:21;94433.09;;;6.49;95.82
11415;BME280;5763;42.714;23.244;2022-12-16T06:28:05;94436.13;;;6.51;94.69
11415;BME280;5763;42.714;23.244;2022-12-16T06:30:50;94456.66;;;6.68;94.23
11415;BME280;5763;42.714;23.244;2022-12-16T06:33:34;94434.81;;;6.72;93.56
11415;BME280;5763;42.714;23.244;2022-12-16T06:36:19;94444.16;;;6.71;92.86
11415;BME280;5763;42.714;23.244;2022-12-16T06:39:03;94447.47;;;6.62;93.96
11415;BME280;5763;42.714;23.244;2022-12-16T06:41:47;94422.16;;;6.65;94.03
11415;BME280;5763;42.714;23.244;2022-12-16T06:44:31;94412.50;;;6.64;94.46
11415;BME280;5763;42.714;23.244;2022-12-16T06:47:17;94432.50;;;6.70;94.13
11415;BME280;5763;42.714;23.244;2022-12-16T06:50:00;94434.81;;;6.72;93.95
11415;BME280;5763;42.714;23.244;2022-12-16T06:52:45;94430.47;;;6.74;94.12
11415;BME280;5763;42.714;23.244;2022-12-16T06:55:29;94438.66;;;6.87;93.24
11415;BME280;5763;42.714;23.244;2022-12-16T06:58:13;94439.84;;;6.98;92.63
11415;BME280;5763;42.714;23.244;2022-12-16T07:01:06;94453.44;;;6.98;92.65
11415;BME280;5763;42.714;23.244;2022-12-16T07:03:51;94460.31;;;7.03;92.61
11415;BME280;5763;42.714;23.244;2022-12-16T07:06:35;94456.97;;;7.11;92.96
11415;BME280;5763;42.714;23.244;2022-12-16T07:09:19;94435.44;;;7.17;92.06
11415;BME280;5763;42.714;23.244;2022-12-16T07:12:04;94452.38;;;7.08;92.78
11415;BME280;5763;42.714;23.244;2022-12-16T07:14:53;94451.09;;;7.13;92.96
11415;BME280;5763;42.714;23.244;2022-12-16T07:17:38;94458.03;;;7.01;94.46
11415;BME280;5763;42.714;23.244;2022-12-16T07:20:24;94449.44;;;7.03;94.43
11415;BME280;5763;42.714;23.244;2022-12-16T07:23:08;94436.25;;;6.89;95.41
11415;BME280;5763;42.714;23.244;2022-12-16T07:25:52;94452.16;;;7.03;95.08
11415;BME280;5763;42.714;23.244;2022-12-16T07:28:36;94427.69;;;7.03;94.83
11415;BME280;5763;42.714;23.244;2022-12-16T07:31:20;94484.25;;;6.95;95.34
11415;BME280;5763;42.714;23.244;2022-12-16T07:34:05;94469.50;;;6.80;95.55
11415;BME280;5763;42.714;23.244;2022-12-16T07:36:51;94462.88;;;6.81;97.11
11415;BME280;5763;42.714;23.244;2022-12-16T07:39:35;94466.03;;;6.80;96.64
11415;BME280;5763;42.714;23.244;2022-12-16T07:42:19;94449.28;;;6.81;97.52
11415;BME280;5763;42.714;23.244;2022-12-16T07:45:04;94466.59;;;6.87;97.99
11415;BME280;5763;42.714;23.244;2022-12-16T07:47:49;94470.41;;;6.90;99.26
11415;BME280;5763;42.714;23.244;2022-12-16T07:50:34;94469.97;;;6.91;99.79
11415;BME280;5763;42.714;23.244;2022-12-16T07:53:20;94483.38;;;6.98;99.27
11415;BME280;5763;42.714;23.244;2022-12-16T07:56:05;94457.81;;;7.08;99.31
11415;BME280;5763;42.714;23.244;2022-12-16T07:58:49;94474.34;;;7.01;99.15
11415;BME280;5763;42.714;23.244;2022-12-16T08:01:34;94467.59;;;7.06;98.40
11415;BME280;5763;42.714;23.244;2022-12-16T08:04:18;94477.22;;;7.10;98.71
11415;BME280;5763;42.714;23.244;2022-12-16T08:07:02;94504.06;;;7.08;98.76
11415;BME280;5763;42.714;23.244;2022-12-16T08:09:48;94472.44;;;7.14;97.26
11415;BME280;5763;42.714;23.244;2022-12-16T08:12:32;94476.44;;;7.10;98.01
11415;BME280;5763;42.714;23.244;2022-12-16T08:15:17;94466.13;;;7.17;97.50
11415;BME280;5763;42.714;23.244;2022-12-16T08:18:01;94463.97;;;7.37;97.00
11415;BME280;5763;42.714;23.244;2022-12-16T08:20:45;94461.25;;;7.37;97.32
11415;BME280;5763;42.714;23.244;2022-12-16T08:23:30;94468.44;;;7.44;95.82
11415;BME280;5763;42.714;23.244;2022-12-16T08:26:15;94463.09;;;7.40;96.61
11415;BME280;5763;42.714;23.244;2022-12-16T08:29:00;94482.81;;;7.57;95.76
11415;BME280;5763;42.714;23.244;2022-12-16T08:31:46;94482.72;;;7.60;95.47
11415;BME280;5763;42.714;23.244;2022-12-16T08:34:30;94469.41;;;7.62;96.00
11415;BME280;5763;42.714;23.244;2022-12-16T08:37:14;94464.94;;;7.81;95.97
11415;BME280;5763;42.714;23.244;2022-12-16T08:39:58;94450.34;;;7.87;95.00
11415;BME280;5763;42.714;23.244;2022-12-16T08:42:44;94437.91;;;7.99;94.86
11415;BME280;5763;42.714;23.244;2022-12-16T08:45:29;94441.88;;;8.19;93.12
11415;BME280;5763;42.714;23.244;2022-12-16T08:48:13;94439.59;;;8.30;92.49
11415;BME280;5763;42.714;23.244;2022-12-16T08:50:59;94426.78;;;8.52;90.81
11415;BME280;5763;42.714;23.244;2022-12-16T08:53:44;94449.47;;;8.49;90.80
11415;BME280;5763;42.714;23.244;2022-12-16T08:56:28;94440.72;;;8.54;90.31
11415;BME280;5763;42.714;23.244;2022-12-16T08:59:13;94436.53;;;8.84;89.64
11415;BME280;5763;42.714;23.244;2022-12-16T09:01:58;94433.09;;;8.92;88.31
11415;BME280;5763;42.714;23.244;2022-12-16T09:04:41;94427.59;;;8.83;89.16
11415;BME280;5763;42.714;23.244;2022-12-16T09:07:26;94416.97;;;9.37;88.29
11415;BME280;5763;42.714;23.244;2022-12-16T09:10:10;94432.88;;;9.60;84.90
11415;BME280;5763;42.714;23.244;2022-12-16T09:13:04;94413.88;;;9.57;84.78
11415;BME280;5763;42.714;23.244;2022-12-16T09:15:49;94421.38;;;9.74;84.51
11415;BME280;5763;42.714;23.244;2022-12-16T09:18:34;94396.22;;;9.88;83.15
11415;BME280;5763;42.714;23.244;2022-12-16T09:21:18;94400.25;;;10.14;82.13
11415;BME280;5763;42.714;23.244;2022-12-16T09:24:03;94410.56;;;10.19;82.17
11415;BME280;5763;42.714;23.244;2022-12-16T09:26:47;94393.44;;;10.46;80.25
11415;BME280;5763;42.714;23.244;2022-12-16T09:29:31;94377.00;;;10.82;79.24
11415;BME280;5763;42.714;23.244;2022-12-16T09:32:16;94387.53;;;11.34;75.69
11415;BME280;5763;42.714;23.244;2022-12-16T09:35:00;94391.41;;;11.09;75.95
11415;BME280;5763;42.714;23.244;2022-12-16T09:37:45;94403.34;;;11.30;74.53
11415;BME280;5763;42.714;23.244;2022-12-16T09:40:29;94393.78;;;11.25;75.14
11415;BME280;5763;42.714;23.244;2022-12-16T09:46:32;94363.63;;;11.34;76.53
11415;BME280;5763;42.714;23.244;2022-12-16T09:49:32;94367.88;;;11.35;74.93
11415;BME280;5763;42.714;23.244;2022-12-16T09:52:21;94387.66;;;11.81;73.87
11415;BME280;5763;42.714;23.244;2022-12-16T09:55:21;94399.81;;;12.12;72.10
11415;BME280;5763;42.714;23.244;2022-12-16T09:58:07;94362.81;;;12.31;71.21
11415;BME280;5763;42.714;23.244;2022-12-16T10:00:53;94385.00;;;12.42;70.76
11415;BME280;5763;42.714;23.244;2022-12-16T10:03:38;94373.66;;;12.64;69.34
11415;BME280;5763;42.714;23.244;2022-12-16T10:06:39;94354.56;;;12.55;70.11
11415;BME280;5763;42.714;23.244;2022-12-16T10:09:29;94398.81;;;12.86;69.23
11415;BME280;5763;42.714;23.244;2022-12-16T10:12:21;94372.63;;;13.28;67.64
11415;BME280;5763;42.714;23.244;2022-12-16T10:15:18;94389.44;;;13.79;65.46
11415;BME280;5763;42.714;23.244;2022-12-16T10:18:13;94365.13;;;14.47;63.12
11415;BME280;5763;42.714;23.244;2022-12-16T10:20:58;94348.81;;;14.89;60.76
11415;BME280;5763;42.714;23.244;2022-12-16T10:23:48;94338.78;;;15.11;60.27
11415;BME280;5763;42.714;23.244;2022-12-16T10:26:42;94343.97;;;15.29;60.03
11415;BME280;5763;42.714;23.244;2022-12-16T10:29:31;94350.69;;;15.54;59.09
11415;BME280;5763;42.714;23.244;2022-12-16T10:32:24;94333.94;;;15.94;57.37
11415;BME280;5763;42.714;23.244;2022-12-16T10:35:19;94330.22;;;16.50;56.02
11415;BME280;5763;42.714;23.244;2022-12-16T10:38:09;94332.88;;;17.03;54.24
11415;BME280;5763;42.714;23.244;2022-12-16T10:41:11;94339.00;;;17.51;53.06
11415;BME280;5763;42.714;23.244;2022-12-16T10:43:57;94330.19;;;17.58;52.79
11415;BME280;5763;42.714;23.244;2022-12-16T10:46:42;94326.41;;;17.83;52.78
11415;BME280;5763;42.714;23.244;2022-12-16T10:49:26;94323.06;;;18.17;51.62
11415;BME280;5763;42.714;23.244;2022-12-16T10:52:11;94299.66;;;18.18;50.89
11415;BME280;5763;42.714;23.244;2022-12-16T10:55:02;94347.75;;;18.16;49.09
11415;BME280;5763;42.714;23.244;2022-12-16T10:57:59;94331.66;;;17.98;50.75
11415;BME280;5763;42.714;23.244;2022-12-16T11:00:49;94329.16;;;17.94;49.29
11415;BME280;5763;42.714;23.244;2022-12-16T11:03:36;94348.53;;;18.05;49.55
11415;BME280;5763;42.714;23.244;2022-12-16T11:06:22;94337.00;;;18.75;47.38
11415;BME280;5763;42.714;23.244;2022-12-16T11:09:30;94327.56;;;19.40;45.89
11415;BME280;5763;42.714;23.244;2022-12-16T11:12:23;94334.97;;;19.91;45.02
11415;BME280;5763;42.714;23.244;2022-12-16T11:15:23;94329.22;;;20.61;43.49
11415;BME280;5763;42.714;23.244;2022-12-16T11:18:10;94324.53;;;21.12;42.05
11415;BME280;5763;42.714;23.244;2022-12-16T11:21:07;94307.53;;;21.65;40.70
11415;BME280;5763;42.714;23.244;2022-12-16T11:24:10;94319.91;;;21.70;39.46
11415;BME280;5763;42.714;23.244;2022-12-16T11:26:56;94311.16;;;22.75;37.89
11415;BME280;5763;42.714;23.244;2022-12-16T11:29:48;94322.75;;;24.90;33.53
11415;BME280;5763;42.714;23.244;2022-12-16T11:32:36;94306.91;;;26.16;31.42
11415;BME280;5763;42.714;23.244;2022-12-16T11:35:24;94322.97;;;26.38;30.92
11415;BME280;5763;42.714;23.244;2022-12-16T11:38:17;94307.44;;;26.44;29.31
11415;BME280;5763;42.714;23.244;2022-12-16T11:41:04;94311.94;;;26.32;30.52
11415;BME280;5763;42.714;23.244;2022-12-16T11:43:51;94294.69;;;26.81;29.62
11415;BME280;5763;42.714;23.244;2022-12-16T11:46:35;94283.41;;;27.43;28.74
11415;BME280;5763;42.714;23.244;2022-12-16T11:49:24;94287.06;;;28.66;26.99
11415;BME280;5763;42.714;23.244;2022-12-16T11:52:13;94281.06;;;29.64;25.19
11415;BME280;5763;42.714;23.244;2022-12-16T11:55:03;94277.81;;;30.75;24.06
11415;BME280;5763;42.714;23.244;2022-12-16T11:57:53;94283.22;;;30.09;25.09
11415;BME280;5763;42.714;23.244;2022-12-16T12:00:47;94259.41;;;30.29;24.54
11415;BME280;5763;42.714;23.244;2022-12-16T12:03:39;94256.59;;;30.48;24.04
11415;BME280;5763;42.714;23.244;2022-12-16T12:06:31;94269.50;;;30.41;24.13
11415;BME280;5763;42.714;23.244;2022-12-16T12:09:21;94268.66;;;30.48;24.43
11415;BME280;5763;42.714;23.244;2022-12-16T12:12:15;94275.16;;;30.32;24.67
11415;BME280;5763;42.714;23.244;2022-12-16T12:15:12;94270.25;;;30.32;24.72
11415;BME280;5763;42.714;23.244;2022-12-16T12:18:07;94252.22;;;29.92;25.10
11415;BME280;5763;42.714;23.244;2022-12-16T12:21:11;94274.38;;;28.91;26.72
11415;BME280;5763;42.714;23.244;2022-12-16T12:24:07;94262.03;;;28.87;26.84
11415;BME280;5763;42.714;23.244;2022-12-16T12:27:01;94265.59;;;28.87;26.97
11415;BME280;5763;42.714;23.244;2022-12-16T12:29:58;94249.53;;;29.14;26.38
11415;BME280;5763;42.714;23.244;2022-12-16T12:32:54;94250.50;;;28.75;27.04
11415;BME280;5763;42.714;23.244;2022-12-16T12:35:52;94238.00;;;29.03;26.82
11415;BME280;5763;42.714;23.244;2022-12-16T12:38:48;94260.50;;;27.78;28.44
11415;BME280;5763;42.714;23.244;2022-12-16T12:41:49;94238.75;;;26.53;30.17
11415;BME280;5763;42.714;23.244;2022-12-16T12:44:42;94248.75;;;25.94;31.60
11415;BME280;5763;42.714;23.244;2022-12-16T12:47:34;94240.22;;;25.34;32.60
11415;BME280;5763;42.714;23.244;2022-12-16T12:50:26;94262.78;;;24.22;34.77
11415;BME280;5763;42.714;23.244;2022-12-16T12:53:21;94248.38;;;23.49;36.40
11415;BME280;5763;42.714;23.244;2022-12-16T12:56:17;94261.47;;;23.54;37.19
11415;BME280;5763;42.714;23.244;2022-12-16T12:59:12;94250.69;;;23.99;36.83
11415;BME280;5763;42.714;23.244;2022-12-16T13:01:59;94250.34;;;23.82;36.74
11415;BME280;5763;42.714;23.244;2022-12-16T13:04:47;94231.13;;;23.37;37.72
11415;BME280;5763;42.714;23.244;2022-12-16T13:07:33;94238.94;;;22.72;39.35
11415;BME280;5763;42.714;23.244;2022-12-16T13:10:33;94236.28;;;21.88;41.13
11415;BME280;5763;42.714;23.244;2022-12-16T13:13:31;94234.78;;;20.93;43.72
11415;BME280;5763;42.714;23.244;2022-12-16T13:19:57;94236.72;;;19.70;47.60
11415;BME280;5763;42.714;23.244;2022-12-16T13:22:43;94233.44;;;19.07;50.02
11415;BME280;5763;42.714;23.244;2022-12-16T13:25:50;94238.13;;;18.48;51.80
11415;BME280;5763;42.714;23.244;2022-12-16T13:28:37;94231.03;;;17.84;53.98
11415;BME280;5763;42.714;23.244;2022-12-16T13:31:23;94244.16;;;17.34;56.21
11415;BME280;5763;42.714;23.244;2022-12-16T13:34:21;94230.59;;;16.92;58.01
11415;BME280;5763;42.714;23.244;2022-12-16T13:37:23;94242.66;;;16.83;58.76
11415;BME280;5763;42.714;23.244;2022-12-16T13:40:16;94249.88;;;16.53;60.36
11415;BME280;5763;42.714;23.244;2022-12-16T13:43:13;94239.66;;;16.12;61.95
11415;BME280;5763;42.714;23.244;2022-12-16T13:46:18;94244.75;;;15.71;63.31
11415;BME280;5763;42.714;23.244;2022-12-16T13:49:43;94263.31;;;15.34;65.10
11415;BME280;5763;42.714;23.244;2022-12-16T13:52:36;94251.81;;;15.10;66.29
11415;BME280;5763;42.714;23.244;2022-12-16T13:55:27;94264.97;;;14.95;67.37
11415;BME280;5763;42.714;23.244;2022-12-16T13:58:20;94282.59;;;14.78;68.44
11415;BME280;5763;42.714;23.244;2022-12-16T14:01:11;94280.75;;;14.44;70.26
11415;BME280;5763;42.714;23.244;2022-12-16T14:03:58;94285.94;;;14.36;70.35
11415;BME280;5763;42.714;23.244;2022-12-16T14:06:43;94278.03;;;14.24;71.64
11415;BME280;5763;42.714;23.244;2022-12-16T14:09:36;94291.59;;;14.13;71.86
11415;BME280;5763;42.714;23.244;2022-12-16T14:12:44;94275.72;;;14.02;72.73
11415;BME280;5763;42.714;23.244;2022-12-16T14:15:40;94278.91;;;13.95;72.88
11415;BME280;5763;42.714;23.244;2022-12-16T14:18:42;94292.91;;;13.77;74.67
11415;BME280;5763;42.714;23.244;2022-12-16T14:21:33;94294.41;;;13.78;73.89
11415;BME280;5763;42.714;23.244;2022-12-16T14:24:23;94310.59;;;13.56;74.75
11415;BME280;5763;42.714;23.244;2022-12-16T14:27:17;94290.22;;;13.48;76.14
11415;BME280;5763;42.714;23.244;2022-12-16T14:30:15;94301.47;;;13.30;77.37
11415;BME280;5763;42.714;23.244;2022-12-16T14:33:16;94287.09;;;13.21;76.96
11415;BME280;5763;42.714;23.244;2022-12-16T14:36:00;94303.47;;;13.15;77.38
11415;BME280;5763;42.714;23.244;2022-12-16T14:38:47;94311.06;;;13.06;78.36
11415;BME280;5763;42.714;23.244;2022-12-16T14:41:41;94291.94;;;12.97;78.70
11415;BME280;5763;42.714;23.244;2022-12-16T14:44:27;94290.56;;;12.92;79.00
11415;BME280;5763;42.714;23.244;2022-12-16T14:47:15;94294.94;;;12.84;79.60
11415;BME280;5763;42.714;23.244;2022-12-16T14:50:01;94293.78;;;12.76;80.76